Terminal Aerodrome Forecast
Issued by NWS

Home | Current Version | Previous Version | Text Only | Print | Product List | Glossary On
Versions: 1 2 3 4 5 6 7 8 9 10 11 12 13 14 15 16 17 18 19 20 21 22
000
FTUS43 KGRB 211130
TAFMTW
TAF
KMTW 211130Z 2112/2212 VRB03KT P6SM SCT007 BKN019
      TEMPO 2112/2116 3SM BR BKN006
     FM211600 02009KT P6SM BKN008 BKN020
     FM212100 10005KT P6SM BKN025
     FM220000 10005KT P6SM FEW030 BKN120
     FM220500 16005KT P6SM BKN100
     FM220900 18005KT 4SM BR SCT120=

USA.gov is the U.S. government's official web portal to all federal, state and local government web resources and services.